Airfield :
LOGIN :

Register | Disclaimer

   EN    FR    IT 

 










Legend :    VFR   Marginal VFR   IFR   Intensive IFR   Very Intensive IFR
Visi :
Ceiling :
>= 8 km
>= 3000ft
5 to 8 km
1000 to 3000 ft
1500m to 5 km
500 to 1000 ft
800 to 1500m
200 to 500 ft
< 800m
< 200 ft
Symbols :   Thunderstorms  Fog  Heavy snow  Heavy precipitations  Wind > 20 kt
SIGMETs :     Misc.  Thunderstorms  Icing  Turbulence  Mountain Waves  Volcanic Ashes






- Airport Elevation : 195 ft


LFMY - Salon de Provence

CURRENT METAR :
  • 280830Z AUTO 08007KT 9999 BKN050 OVC062 10/06 Q1014 TEMPO 09015G25KT 4000 SHRA BKN012 SCT025CB

EXPIRED METARs :
  • 280800Z AUTO 07007KT 9999 OVC046/// ///TCU 10/06 Q1014 TEMPO 09015G25KT 4000 SHRA BKN012 BKN020 SCT025TCU
  • 280730Z AUTO 05008KT 9999 ///TCU 09/06 Q1015 TEMPO 09015G25KT 4000 SHRA BKN012 BKN020 SCT025TCU
  • 280700Z AUTO 07008KT 9999 OVC048 09/06 Q1015 TEMPO 09015G25KT 4000 SHRA BKN012 BKN020 SCT025TCU
  • 280630Z AUTO 07009KT 9999 FEW038 OVC046 09/06 Q1015 TEMPO 09015G25KT 4000 SHRA BKN012 BKN020 SCT025TCU
  • 280600Z AUTO 06007KT 9999 SCT038 BKN049 BKN056 09/06 Q1016

TAF TAF LFMY
Valid from the 28 at 09:00 until the 29 at 09:00 UTC


280800Z 2809/2909 08010KT 8000 -RA SCT030 BKN060 TX11/2812Z TN04/2906Z
TEMPO 2809/2813 09015G25KT 4000 SHRA BKN012 SCT025CB
BECMG 2811/2813 36010KT NSW



MET'MAP, your aeronautical weather chart ! - Copyright ORBIFLY December 2007 - Disclaimer

ORBIFLY MET'MAP TEAM :

Programming & Development : Alexandra Zaïnal
Original concept : Baudouin d'Aumeries
Technical & hardware support : Manuel Goepfert
Assistance : Marc-Olivier Méhu




SOURCES & CREDITS :

   NOAA